Time;durP1;ratioP1;P1;durP2;ratioP2;P2;SDS_P1;SDS_P2;PMS_P1;PMS_P2;Temp;Humidity;BMP_temperature;BMP_pressure;BME280_temperature;BME280_humidity;BME280_pressure;Samples;Min_cycle;Max_cycle;Signal;HPM_P1;HPM_P2
2023/07/05 00:01:36;;;;;;;;;;;26.90;56.60;;;;;;5140483;27;43819;-78
2023/07/05 00:04:02;;;;;;;;;;;26.90;55.10;;;;;;5127090;27;42956;-79
2023/07/05 00:06:27;;;;;;;;;;;26.90;52.70;;;;;;5129860;27;43582;-79
2023/07/05 00:08:53;;;;;;;;;;;26.90;53.10;;;;;;5133281;27;42991;-78
2023/07/05 00:11:18;;;;;;;;;;;26.90;53.00;;;;;;5129358;27;42978;-77
2023/07/05 00:13:44;;;;;;;;;;;26.80;52.80;;;;;;5131530;27;42977;-76
2023/07/05 00:16:10;;;;;;;;;;;26.80;52.20;;;;;;5127095;27;42946;-79
2023/07/05 00:18:36;;;;;;;;;;;26.80;51.90;;;;;;5126226;27;44040;-78
2023/07/05 00:21:03;;;;;;;;;;;26.80;52.20;;;;;;5125697;27;43064;-77
2023/07/05 00:23:29;;;;;;;;;;;26.80;52.40;;;;;;5124553;27;42863;-77
2023/07/05 00:25:54;;;;;;;;;;;26.80;52.50;;;;;;5124002;27;43021;-78
2023/07/05 00:28:20;;;;;;;;;;;26.80;52.10;;;;;;5124351;27;42890;-77
2023/07/05 00:30:46;;;;;;;;;;;26.80;52.50;;;;;;5124901;27;42843;-78
2023/07/05 00:33:12;;;;;;;;;;;26.80;52.10;;;;;;5125198;27;43116;-79
2023/07/05 00:35:46;;;;;;;;;;;26.80;52.10;;;;;;5122206;27;43088;-77
2023/07/05 00:38:11;;;;;;;;;;;26.80;52.60;;;;;;5124627;27;42931;-77
2023/07/05 00:40:37;;;;;;;;;;;26.80;53.30;;;;;;5125037;27;43000;-80
2023/07/05 00:43:02;;;;;;;;;;;26.80;53.70;;;;;;5106124;27;43231;-77
2023/07/05 00:45:46;;;;;;;;;;;26.70;54.20;;;;;;5124766;27;43518;-78
2023/07/05 00:48:16;;;;;;;;;;;26.70;54.00;;;;;;5124949;27;42854;-79
2023/07/05 00:50:42;;;;;;;;;;;26.80;53.50;;;;;;5115743;27;43261;-78
2023/07/05 00:53:09;;;;;;;;;;;26.80;53.50;;;;;;5124524;27;42897;-77
2023/07/05 00:55:34;;;;;;;;;;;26.80;53.70;;;;;;5124948;27;44037;-78
2023/07/05 00:58:01;;;;;;;;;;;26.80;53.20;;;;;;5124209;27;43665;-77
2023/07/05 01:00:28;;;;;;;;;;;26.80;53.30;;;;;;5123890;27;42972;-77
2023/07/05 01:02:55;;;;;;;;;;;26.80;53.80;;;;;;5124247;27;43637;-79
2023/07/05 01:05:22;;;;;;;;;;;26.80;53.60;;;;;;5124290;27;43044;-80
2023/07/05 01:07:47;;;;;;;;;;;26.80;53.60;;;;;;5124576;27;42964;-78
2023/07/05 01:10:17;;;;;;;;;;;26.80;54.10;;;;;;5125551;27;42881;-78
2023/07/05 01:12:45;;;;;;;;;;;26.80;54.10;;;;;;5128075;27;43946;-78
2023/07/05 01:15:25;;;;;;;;;;;26.80;54.10;;;;;;5127999;27;43455;-79
2023/07/05 01:17:50;;;;;;;;;;;26.80;54.90;;;;;;5127676;27;42940;-77
2023/07/05 01:20:26;;;;;;;;;;;26.70;54.80;;;;;;5126990;27;42867;-78
2023/07/05 01:22:52;;;;;;;;;;;26.70;55.60;;;;;;5126886;27;42936;-77
2023/07/05 01:25:37;;;;;;;;;;;26.80;55.40;;;;;;5127334;27;42995;-76
2023/07/05 01:28:09;;;;;;;;;;;26.80;55.40;;;;;;5126362;27;43089;-78
2023/07/05 01:30:50;;;;;;;;;;;26.70;55.80;;;;;;5127630;27;42861;-77
2023/07/05 01:33:20;;;;;;;;;;;26.80;55.00;;;;;;5128396;27;42885;-80
2023/07/05 01:35:47;;;;;;;;;;;26.80;54.90;;;;;;5127035;27;43498;-77
2023/07/05 01:38:13;;;;;;;;;;;26.80;55.30;;;;;;5127234;27;43002;-77
2023/07/05 01:40:38;;;;;;;;;;;26.80;55.20;;;;;;5126634;27;44410;-78
2023/07/05 01:43:14;;;;;;;;;;;26.80;54.60;;;;;;5108796;27;43149;-77
2023/07/05 01:45:39;;;;;;;;;;;26.80;54.50;;;;;;5125534;27;43539;-78
2023/07/05 01:48:14;;;;;;;;;;;26.80;54.30;;;;;;5123689;27;42905;-77
2023/07/05 01:50:42;;;;;;;;;;;26.80;54.80;;;;;;5112301;27;43930;-78
2023/07/05 01:53:40;;;;;;;;;;;26.80;54.10;;;;;;5121264;27;43135;-76
2023/07/05 01:56:09;;;;;;;;;;;26.60;54.70;;;;;;5069763;27;43829;-76
2023/07/05 01:58:37;;;;;;;;;;;26.50;54.90;;;;;;5108856;27;43195;-78
2023/07/05 02:01:04;;;;;;;;;;;26.50;55.30;;;;;;5127165;27;43515;-79
2023/07/05 02:03:30;;;;;;;;;;;26.50;55.40;;;;;;5127068;27;43039;-78
2023/07/05 02:05:56;;;;;;;;;;;26.60;55.30;;;;;;5126786;27;43597;-78
2023/07/05 02:08:24;;;;;;;;;;;26.50;55.30;;;;;;5127218;27;43153;-77
2023/07/05 02:10:50;;;;;;;;;;;26.50;55.30;;;;;;5126669;27;43164;-76
2023/07/05 02:13:17;;;;;;;;;;;26.40;55.90;;;;;;5126960;27;43022;-78
2023/07/05 02:15:42;;;;;;;;;;;26.60;55.00;;;;;;5107344;27;44613;-77
2023/07/05 02:18:08;;;;;;;;;;;26.60;54.90;;;;;;5127244;27;42914;-79
2023/07/05 02:20:35;;;;;;;;;;;26.60;54.10;;;;;;5126350;27;42938;-77
2023/07/05 02:23:01;;;;;;;;;;;26.60;53.80;;;;;;5127178;27;42973;-77
2023/07/05 02:25:27;;;;;;;;;;;26.50;54.10;;;;;;5138770;27;42991;-77
2023/07/05 02:27:52;;;;;;;;;;;26.50;51.50;;;;;;5147353;27;43229;-76
2023/07/05 02:30:18;;;;;;;;;;;26.40;50.60;;;;;;5147819;27;44251;-75
2023/07/05 02:32:44;;;;;;;;;;;26.40;49.90;;;;;;5147553;27;42991;-76
2023/07/05 02:35:09;;;;;;;;;;;26.30;49.10;;;;;;5147821;27;44350;-76
2023/07/05 02:37:35;;;;;;;;;;;26.20;48.10;;;;;;5147324;27;43231;-77
2023/07/05 02:40:00;;;;;;;;;;;26.10;47.90;;;;;;5147503;27;43421;-76
2023/07/05 02:42:26;;;;;;;;;;;26.20;47.80;;;;;;5147490;27;43004;-76
2023/07/05 02:44:52;;;;;;;;;;;26.20;48.50;;;;;;5147332;27;43645;-76
2023/07/05 02:47:19;;;;;;;;;;;26.20;49.30;;;;;;5147934;27;42940;-77
2023/07/05 02:49:45;;;;;;;;;;;26.10;48.90;;;;;;5147430;27;43508;-77
2023/07/05 02:52:11;;;;;;;;;;;26.10;49.90;;;;;;5146830;27;42996;-79
2023/07/05 02:54:37;;;;;;;;;;;26.10;50.60;;;;;;5134583;27;43550;-78
2023/07/05 02:57:03;;;;;;;;;;;26.00;51.10;;;;;;5147638;27;43165;-77
2023/07/05 02:59:28;;;;;;;;;;;26.00;52.30;;;;;;5147986;27;43058;-78
2023/07/05 03:01:54;;;;;;;;;;;26.00;52.90;;;;;;5147408;27;43027;-77
2023/07/05 03:04:19;;;;;;;;;;;26.00;53.90;;;;;;5147408;27;43837;-78
2023/07/05 03:06:45;;;;;;;;;;;26.00;54.30;;;;;;5147076;27;42936;-77
2023/07/05 03:09:11;;;;;;;;;;;26.10;54.50;;;;;;5147071;27;43510;-78
2023/07/05 03:11:36;;;;;;;;;;;26.10;55.00;;;;;;5146739;27;42955;-77
2023/07/05 03:14:02;;;;;;;;;;;26.00;55.20;;;;;;5144652;27;43095;-77
2023/07/05 03:16:28;;;;;;;;;;;26.00;55.70;;;;;;5134122;27;42989;-78
2023/07/05 03:18:54;;;;;;;;;;;26.00;55.60;;;;;;5144168;27;43402;-77
2023/07/05 03:21:19;;;;;;;;;;;26.00;55.70;;;;;;5146480;27;42974;-76
2023/07/05 03:23:45;;;;;;;;;;;26.10;56.00;;;;;;5147139;27;43859;-76
2023/07/05 03:26:10;;;;;;;;;;;26.00;55.80;;;;;;5146381;27;42881;-79
2023/07/05 03:28:36;;;;;;;;;;;26.10;56.10;;;;;;5132318;27;43348;-76
2023/07/05 03:31:06;;;;;;;;;;;26.10;55.90;;;;;;5139539;27;43958;-76
2023/07/05 03:33:33;;;;;;;;;;;26.10;56.30;;;;;;5134445;27;43897;-78
2023/07/05 03:35:59;;;;;;;;;;;26.10;56.30;;;;;;5120681;27;42919;-78
2023/07/05 03:38:26;;;;;;;;;;;26.10;56.80;;;;;;5137386;27;43403;-76
2023/07/05 03:40:52;;;;;;;;;;;;;;;;;;5143279;27;43010;-77
2023/07/05 03:43:18;;;;;;;;;;;26.00;56.30;;;;;;5133053;27;43096;-77
2023/07/05 03:45:43;;;;;;;;;;;26.00;56.50;;;;;;5120122;27;43054;-78
2023/07/05 03:48:09;;;;;;;;;;;26.00;57.10;;;;;;5133143;27;42919;-75
2023/07/05 03:50:34;;;;;;;;;;;26.00;56.70;;;;;;5133611;27;43015;-78
2023/07/05 03:53:00;;;;;;;;;;;26.00;56.50;;;;;;5138733;27;43602;-77
2023/07/05 03:55:25;;;;;;;;;;;26.00;56.90;;;;;;5144590;27;43004;-75
2023/07/05 03:57:51;;;;;;;;;;;26.00;56.60;;;;;;5144286;27;43441;-77
2023/07/05 04:00:17;;;;;;;;;;;26.00;57.20;;;;;;5132099;27;43027;-76
2023/07/05 04:02:42;;;;;;;;;;;26.10;57.20;;;;;;5145218;27;43195;-76
2023/07/05 04:05:08;;;;;;;;;;;26.00;56.90;;;;;;5144972;27;43056;-77
2023/07/05 04:07:33;;;;;;;;;;;26.10;57.20;;;;;;5128448;27;43097;-78
2023/07/05 04:09:59;;;;;;;;;;;26.00;57.50;;;;;;5130699;27;42976;-78
2023/07/05 04:12:24;;;;;;;;;;;26.00;57.90;;;;;;5143849;27;43881;-77
2023/07/05 04:14:49;;;;;;;;;;;26.00;57.00;;;;;;5141031;27;43186;-78
2023/07/05 04:17:15;;;;;;;;;;;26.00;57.40;;;;;;5142797;27;42958;-75
2023/07/05 04:19:40;;;;;;;;;;;26.00;57.20;;;;;;5143281;27;42929;-76
2023/07/05 04:22:06;;;;;;;;;;;30.10;60.40;;;;;;5135617;27;43494;-76
2023/07/05 04:24:32;;;;;;;;;;;26.00;57.60;;;;;;5145194;27;43147;-76
2023/07/05 04:26:58;;;;;;;;;;;26.00;57.60;;;;;;5141846;27;43692;-78
2023/07/05 04:29:23;;;;;;;;;;;26.00;58.00;;;;;;5134467;27;43251;-77
2023/07/05 04:31:49;;;;;;;;;;;26.00;58.00;;;;;;5144508;27;43691;-77
2023/07/05 04:34:14;;;;;;;;;;;25.90;58.10;;;;;;5135400;27;43998;-77
2023/07/05 04:36:40;;;;;;;;;;;26.00;58.10;;;;;;5132905;27;43474;-77
2023/07/05 04:39:05;;;;;;;;;;;26.00;58.00;;;;;;5141550;27;43069;-77
2023/07/05 04:41:31;;;;;;;;;;;26.00;58.00;;;;;;5144558;27;42953;-78
2023/07/05 04:43:56;;;;;;;;;;;25.90;57.90;;;;;;5142841;27;43329;-75
2023/07/05 04:46:22;;;;;;;;;;;25.90;58.20;;;;;;5140686;27;43574;-77
2023/07/05 04:48:48;;;;;;;;;;;26.00;58.70;;;;;;5142770;27;43007;-77
2023/07/05 04:51:13;;;;;;;;;;;26.00;58.40;;;;;;5115688;27;43278;-77
2023/07/05 04:53:39;;;;;;;;;;;26.00;58.40;;;;;;5146821;27;43146;-78
2023/07/05 04:56:04;;;;;;;;;;;25.90;58.60;;;;;;5142273;27;43417;-77
2023/07/05 04:58:30;;;;;;;;;;;25.80;58.50;;;;;;5136833;27;42951;-77
2023/07/05 05:01:02;;;;;;;;;;;25.80;58.70;;;;;;5134480;27;43585;-77
2023/07/05 05:03:28;;;;;;;;;;;25.70;58.70;;;;;;5149201;27;44020;-77
2023/07/05 05:05:54;;;;;;;;;;;25.80;58.10;;;;;;5129664;27;43518;-77
2023/07/05 05:08:22;;;;;;;;;;;25.80;58.50;;;;;;5116365;27;43032;-77
2023/07/05 05:10:58;;;;;;;;;;;25.80;58.40;;;;;;5148196;27;42987;-77
2023/07/05 05:13:24;;;;;;;;;;;25.80;59.00;;;;;;5136043;27;42871;-75
2023/07/05 05:15:50;;;;;;;;;;;25.80;58.10;;;;;;5143353;27;43539;-78
2023/07/05 05:18:16;;;;;;;;;;;25.80;58.00;;;;;;5132471;27;42960;-75
2023/07/05 05:20:42;;;;;;;;;;;25.80;58.20;;;;;;5138198;27;44548;-76
2023/07/05 05:23:08;;;;;;;;;;;25.90;58.60;;;;;;5146616;27;42954;-77
2023/07/05 05:25:34;;;;;;;;;;;25.80;58.70;;;;;;5132915;27;44905;-75
2023/07/05 05:27:59;;;;;;;;;;;25.80;58.40;;;;;;5143575;27;43268;-75
2023/07/05 05:30:25;;;;;;;;;;;25.80;58.70;;;;;;5143952;27;42962;-76
2023/07/05 05:32:50;;;;;;;;;;;25.80;58.70;;;;;;5149229;27;43269;-78
2023/07/05 05:35:16;;;;;;;;;;;25.80;59.10;;;;;;5138848;27;43936;-78
2023/07/05 05:37:42;;;;;;;;;;;25.70;58.70;;;;;;5132479;27;43049;-76
2023/07/05 05:40:08;;;;;;;;;;;25.80;59.10;;;;;;5135724;27;42968;-77
2023/07/05 05:42:34;;;;;;;;;;;25.80;59.10;;;;;;5134052;27;43128;-77
2023/07/05 05:44:59;;;;;;;;;;;25.80;59.30;;;;;;5138676;27;43808;-76
2023/07/05 05:47:25;;;;;;;;;;;25.70;59.20;;;;;;5134163;27;42981;-77
2023/07/05 05:49:50;;;;;;;;;;;25.60;59.30;;;;;;5140501;27;42990;-78
2023/07/05 05:52:15;;;;;;;;;;;25.60;59.90;;;;;;5127880;27;42917;-77
2023/07/05 05:54:41;;;;;;;;;;;25.70;59.90;;;;;;5147843;27;43092;-78
2023/07/05 05:57:07;;;;;;;;;;;25.70;59.50;;;;;;5133133;27;43034;-76
2023/07/05 05:59:33;;;;;;;;;;;25.70;59.80;;;;;;5129988;27;43523;-75
2023/07/05 06:01:58;;;;;;;;;;;25.70;59.90;;;;;;5147956;27;42968;-77
2023/07/05 06:04:24;;;;;;;;;;;25.60;59.60;;;;;;5147162;27;42832;-78
2023/07/05 06:06:49;;;;;;;;;;;25.70;59.70;;;;;;5137350;27;42847;-77
2023/07/05 06:09:15;;;;;;;;;;;25.60;60.30;;;;;;5147954;27;42986;-77
2023/07/05 06:11:41;;;;;;;;;;;25.70;60.20;;;;;;5145360;27;43172;-77
2023/07/05 06:14:06;;;;;;;;;;;25.70;60.40;;;;;;5146144;27;42982;-77
2023/07/05 06:16:32;;;;;;;;;;;25.70;59.70;;;;;;5133528;27;43015;-79
2023/07/05 06:18:57;;;;;;;;;;;25.60;59.70;;;;;;5142041;27;43004;-79
2023/07/05 06:21:23;;;;;;;;;;;25.60;59.80;;;;;;5137454;27;42870;-79
2023/07/05 06:23:49;;;;;;;;;;;25.60;59.60;;;;;;5136887;27;43525;-79
2023/07/05 06:26:15;;;;;;;;;;;25.60;60.00;;;;;;5128640;27;43121;-78
2023/07/05 06:28:40;;;;;;;;;;;25.60;60.60;;;;;;5132297;27;42993;-79
2023/07/05 06:31:07;;;;;;;;;;;25.60;59.90;;;;;;5136274;27;42990;-78
2023/07/05 06:33:33;;;;;;;;;;;25.60;60.00;;;;;;5143581;27;43622;-77
2023/07/05 06:36:01;;;;;;;;;;;25.60;59.90;;;;;;5143937;27;43165;-79
2023/07/05 06:38:27;;;;;;;;;;;25.60;59.50;;;;;;5141049;27;43571;-76
2023/07/05 06:40:53;;;;;;;;;;;25.70;60.20;;;;;;5141026;27;42935;-76
2023/07/05 06:43:19;;;;;;;;;;;25.70;60.30;;;;;;5145410;27;43278;-77
2023/07/05 06:45:53;;;;;;;;;;;25.70;60.10;;;;;;5109440;27;43030;-78
2023/07/05 06:48:19;;;;;;;;;;;25.70;59.60;;;;;;5114240;27;43709;-78
2023/07/05 06:50:48;;;;;;;;;;;25.70;59.80;;;;;;5135549;27;43051;-76
2023/07/05 06:53:14;;;;;;;;;;;25.80;59.80;;;;;;5141067;27;42949;-79
2023/07/05 06:55:40;;;;;;;;;;;25.70;59.90;;;;;;5146057;27;43064;-80
2023/07/05 06:58:06;;;;;;;;;;;25.60;59.90;;;;;;5133630;27;44154;-80
2023/07/05 07:00:31;;;;;;;;;;;25.60;60.40;;;;;;5140810;27;43085;-80
2023/07/05 07:02:57;;;;;;;;;;;25.60;60.30;;;;;;5136892;27;43288;-77
2023/07/05 07:05:22;;;;;;;;;;;25.70;60.00;;;;;;5137351;27;43045;-75
2023/07/05 07:07:50;;;;;;;;;;;25.70;60.20;;;;;;5134224;27;42985;-75
2023/07/05 07:10:15;;;;;;;;;;;25.90;59.90;;;;;;5146654;27;43276;-78
2023/07/05 07:12:40;;;;;;;;;;;25.90;59.90;;;;;;5140676;27;43051;-76
2023/07/05 07:15:06;;;;;;;;;;;25.90;59.60;;;;;;5136817;27;43086;-80
2023/07/05 07:17:32;;;;;;;;;;;26.00;59.50;;;;;;5132757;27;43055;-76
2023/07/05 07:19:57;;;;;;;;;;;26.00;59.50;;;;;;5124469;27;43142;-75
2023/07/05 07:22:23;;;;;;;;;;;26.00;58.70;;;;;;5130108;27;43361;-75
2023/07/05 07:24:49;;;;;;;;;;;25.90;59.40;;;;;;5132135;27;43478;-90
2023/07/05 07:27:15;;;;;;;;;;;25.90;59.10;;;;;;5144577;27;43992;-83
2023/07/05 07:29:40;;;;;;;;;;;25.90;59.60;;;;;;5126490;27;42808;-87
2023/07/05 07:32:07;;;;;;;;;;;26.00;59.30;;;;;;5132146;27;43072;-85
2023/07/05 07:34:32;;;;;;;;;;;26.00;58.60;;;;;;5144473;27;43111;-74
2023/07/05 07:36:58;;;;;;;;;;;26.10;58.40;;;;;;5144635;27;43029;-88
2023/07/05 07:39:23;;;;;;;;;;;26.00;58.30;;;;;;5131124;27;43005;-75
2023/07/05 07:41:49;;;;;;;;;;;26.00;58.30;;;;;;5140021;27;43147;-78
2023/07/05 07:44:17;;;;;;;;;;;26.10;58.20;;;;;;5132974;27;43028;-90
2023/07/05 07:46:42;;;;;;;;;;;26.10;58.10;;;;;;5133577;27;43666;-77
2023/07/05 07:49:09;;;;;;;;;;;26.10;58.10;;;;;;5134031;27;42978;-77
2023/07/05 07:51:35;;;;;;;;;;;26.10;58.70;;;;;;5132425;27;42993;-84
2023/07/05 07:54:01;;;;;;;;;;;26.20;58.10;;;;;;5129681;27;42922;-74
2023/07/05 07:56:27;;;;;;;;;;;26.10;58.50;;;;;;5136172;27;43139;-90
2023/07/05 07:58:54;;;;;;;;;;;26.20;58.50;;;;;;5141888;27;42950;-79
2023/07/05 08:01:22;;;;;;;;;;;26.10;58.00;;;;;;5136519;27;44009;-89
2023/07/05 08:03:49;;;;;;;;;;;26.20;58.60;;;;;;5115098;27;43049;-89
2023/07/05 08:06:15;;;;;;;;;;;26.20;58.10;;;;;;5142977;27;44545;-79
2023/07/05 08:08:40;;;;;;;;;;;26.10;58.50;;;;;;5146117;27;42996;-89
2023/07/05 08:11:08;;;;;;;;;;;26.20;58.60;;;;;;5144288;27;43971;-88
2023/07/05 08:13:34;;;;;;;;;;;26.20;58.40;;;;;;5145037;27;42897;-85
2023/07/05 08:16:00;;;;;;;;;;;26.20;57.90;;;;;;5130850;27;43517;-77
2023/07/05 08:18:26;;;;;;;;;;;26.10;57.60;;;;;;5129807;27;42991;-74
2023/07/05 08:20:52;;;;;;;;;;;26.30;57.60;;;;;;5147377;27;43666;-75
2023/07/05 08:23:18;;;;;;;;;;;26.20;57.90;;;;;;5121245;27;43506;-88
2023/07/05 08:25:44;;;;;;;;;;;26.20;57.90;;;;;;5133901;27;43613;-77
2023/07/05 08:28:13;;;;;;;;;;;26.20;57.60;;;;;;5145961;27;42894;-80
2023/07/05 08:30:39;;;;;;;;;;;26.20;58.10;;;;;;5134792;27;43580;-76
2023/07/05 08:33:06;;;;;;;;;;;26.20;57.90;;;;;;5148409;27;42989;-83
2023/07/05 08:35:31;;;;;;;;;;;26.30;57.30;;;;;;5148655;27;42884;-76
2023/07/05 08:37:57;;;;;;;;;;;26.30;57.20;;;;;;5141997;27;43002;-82
2023/07/05 08:40:26;;;;;;;;;;;26.30;57.60;;;;;;5115122;27;43544;-84
2023/07/05 08:43:00;;;;;;;;;;;26.30;57.60;;;;;;5144634;27;43087;-77
2023/07/05 08:45:31;;;;;;;;;;;26.30;57.50;;;;;;5148394;27;42861;-91
2023/07/05 08:48:00;;;;;;;;;;;26.30;57.50;;;;;;5136126;27;43073;-79
2023/07/05 08:50:29;;;;;;;;;;;26.40;57.50;;;;;;5146097;27;42907;-73
2023/07/05 08:53:01;;;;;;;;;;;26.40;57.00;;;;;;5145607;27;42927;-76
2023/07/05 08:55:37;;;;;;;;;;;26.40;57.50;;;;;;5145055;27;42964;-80
2023/07/05 08:58:02;;;;;;;;;;;26.30;57.00;;;;;;5141795;27;42957;-76
2023/07/05 09:00:54;;;;;;;;;;;26.30;57.50;;;;;;5143830;27;43026;-78
2023/07/05 09:03:22;;;;;;;;;;;26.30;56.90;;;;;;5134258;27;42954;-84
2023/07/05 09:05:47;;;;;;;;;;;26.30;56.90;;;;;;5128478;27;44543;-76
2023/07/05 09:08:22;;;;;;;;;;;26.30;56.80;;;;;;5143344;27;42975;-79
2023/07/05 09:10:55;;;;;;;;;;;26.40;57.30;;;;;;5143910;27;43568;-74
2023/07/05 09:13:26;;;;;;;;;;;26.40;57.20;;;;;;5147588;27;42907;-81
2023/07/05 09:16:01;;;;;;;;;;;26.40;57.30;;;;;;5135422;27;43153;-86
2023/07/05 09:18:27;;;;;;;;;;;26.30;56.80;;;;;;5142592;27;43454;-83
2023/07/05 09:20:52;;;;;;;;;;;26.40;56.60;;;;;;5136333;27;44470;-86
2023/07/05 09:23:25;;;;;;;;;;;26.30;56.50;;;;;;5140400;27;42947;-79
2023/07/05 09:25:52;;;;;;;;;;;26.40;56.60;;;;;;5138974;27;42833;-80
2023/07/05 09:28:23;;;;;;;;;;;26.40;57.00;;;;;;5141753;27;42911;-76
2023/07/05 09:30:50;;;;;;;;;;;26.50;57.00;;;;;;5140101;27;43073;-74
2023/07/05 09:33:19;;;;;;;;;;;26.40;56.50;;;;;;5137088;27;43421;-77
2023/07/05 09:35:46;;;;;;;;;;;26.40;56.50;;;;;;5147053;27;43034;-81
2023/07/05 09:38:33;;;;;;;;;;;26.40;56.60;;;;;;5146567;27;43154;-87
2023/07/05 09:41:14;;;;;;;;;;;26.40;57.00;;;;;;5133819;27;43193;-77
2023/07/05 09:43:39;;;;;;;;;;;26.50;56.50;;;;;;5138820;27;42916;-88
2023/07/05 09:46:06;;;;;;;;;;;26.40;56.40;;;;;;5137920;27;43562;-75
2023/07/05 09:48:36;;;;;;;;;;;26.50;56.90;;;;;;5141870;27;42838;-74
2023/07/05 09:51:03;;;;;;;;;;;26.40;56.30;;;;;;5135652;27;43607;-79
2023/07/05 09:53:44;;;;;;;;;;;26.50;56.90;;;;;;5129325;27;42964;-82
2023/07/05 09:56:11;;;;;;;;;;;26.40;56.90;;;;;;5134671;27;43490;-79
2023/07/05 09:58:38;;;;;;;;;;;26.50;56.40;;;;;;5141725;27;43047;-82
2023/07/05 10:01:07;;;;;;;;;;;26.40;56.50;;;;;;5109430;27;43046;-81
2023/07/05 10:03:36;;;;;;;;;;;26.40;56.60;;;;;;5139666;27;42891;-74
2023/07/05 10:06:07;;;;;;;;;;;26.50;56.50;;;;;;5119708;27;44353;-76
2023/07/05 10:08:41;;;;;;;;;;;26.40;56.50;;;;;;5124825;27;43033;-79
2023/07/05 10:11:18;;;;;;;;;;;26.40;56.40;;;;;;5141727;27;42841;-74
2023/07/05 10:13:43;;;;;;;;;;;26.50;56.90;;;;;;5144878;27;43004;-80
2023/07/05 10:16:09;;;;;;;;;;;26.50;56.90;;;;;;5138676;27;44856;-76
2023/07/05 10:18:35;;;;;;;;;;;26.50;56.90;;;;;;5138328;27;43132;-85
2023/07/05 10:21:02;;;;;;;;;;;26.50;56.50;;;;;;5142468;27;43547;-78
2023/07/05 10:23:30;;;;;;;;;;;26.50;56.90;;;;;;5143585;27;42923;-89
2023/07/05 10:26:00;;;;;;;;;;;26.40;56.90;;;;;;5139265;27;43401;-82
2023/07/05 10:28:29;;;;;;;;;;;26.50;57.00;;;;;;5133870;27;43056;-85
2023/07/05 10:31:01;;;;;;;;;;;26.50;56.90;;;;;;5142669;27;43414;-76
2023/07/05 10:33:28;;;;;;;;;;;26.50;56.90;;;;;;5135063;27;43003;-81
2023/07/05 10:35:57;;;;;;;;;;;26.50;56.40;;;;;;5145479;27;43626;-75
2023/07/05 10:38:25;;;;;;;;;;;26.50;56.40;;;;;;5146197;27;43072;-78
2023/07/05 10:40:51;;;;;;;;;;;26.50;56.40;;;;;;5128843;27;43018;-76
2023/07/05 10:43:17;;;;;;;;;;;26.50;56.90;;;;;;5140682;27;42932;-75
2023/07/05 10:45:43;;;;;;;;;;;26.40;56.40;;;;;;5139545;27;43357;-80
2023/07/05 10:48:14;;;;;;;;;;;26.50;56.40;;;;;;5130763;27;42881;-81
2023/07/05 10:50:39;;;;;;;;;;;26.50;56.90;;;;;;5134905;27;42975;-80
2023/07/05 10:53:10;;;;;;;;;;;26.50;56.40;;;;;;5134419;27;43006;-87
2023/07/05 10:55:43;;;;;;;;;;;26.50;56.40;;;;;;5146249;27;43438;-91
2023/07/05 10:58:12;;;;;;;;;;;26.50;56.90;;;;;;5141596;27;43151;-88
2023/07/05 11:00:39;;;;;;;;;;;26.50;56.50;;;;;;5116169;27;44080;-76
2023/07/05 11:03:15;;;;;;;;;;;26.50;57.00;;;;;;5141987;27;43017;-80
2023/07/05 11:05:46;;;;;;;;;;;26.50;57.00;;;;;;5133798;27;43053;-87
2023/07/05 11:08:15;;;;;;;;;;;26.50;57.00;;;;;;5138831;27;42961;-76
2023/07/05 11:10:41;;;;;;;;;;;26.50;56.50;;;;;;5129799;27;43678;-78
2023/07/05 11:13:12;;;;;;;;;;;26.50;56.50;;;;;;5143581;27;43383;-75
2023/07/05 11:15:38;;;;;;;;;;;26.50;56.60;;;;;;5137697;27;43061;-74
2023/07/05 11:18:06;;;;;;;;;;;26.50;56.60;;;;;;5142890;27;43006;-74
2023/07/05 11:20:40;;;;;;;;;;;26.50;56.70;;;;;;5138418;27;43028;-75
2023/07/05 11:23:09;;;;;;;;;;;26.50;56.70;;;;;;5134083;27;42949;-76
2023/07/05 11:25:53;;;;;;;;;;;26.50;57.20;;;;;;5145621;27;44306;-75
2023/07/05 11:28:39;;;;;;;;;;;26.50;57.10;;;;;;5130707;27;42902;-75
2023/07/05 11:31:05;;;;;;;;;;;26.50;57.20;;;;;;5136997;27;43666;-74
2023/07/05 11:33:31;;;;;;;;;;;26.50;56.70;;;;;;5146326;27;42770;-76
2023/07/05 11:35:58;;;;;;;;;;;26.50;56.60;;;;;;5129487;27;42837;-78
2023/07/05 11:38:36;;;;;;;;;;;26.50;57.10;;;;;;5141701;27;42991;-84
2023/07/05 11:41:04;;;;;;;;;;;26.50;56.70;;;;;;5129713;27;43712;-76
2023/07/05 11:43:44;;;;;;;;;;;26.50;56.70;;;;;;5138710;27;42968;-76
2023/07/05 11:46:28;;;;;;;;;;;26.60;57.20;;;;;;5125942;27;42930;-78
2023/07/05 11:48:54;;;;;;;;;;;26.50;57.20;;;;;;5140888;27;43081;-81
2023/07/05 11:51:28;;;;;;;;;;;26.60;57.20;;;;;;5136186;27;42979;-74
2023/07/05 11:53:54;;;;;;;;;;;26.50;56.70;;;;;;5128659;27;43106;-74
2023/07/05 11:56:20;;;;;;;;;;;26.50;56.70;;;;;;5133685;27;43872;-75
2023/07/05 11:58:47;;;;;;;;;;;26.50;56.80;;;;;;5145167;27;43130;-78
2023/07/05 12:01:15;;;;;;;;;;;26.60;57.30;;;;;;5135205;27;43743;-76
2023/07/05 12:03:46;;;;;;;;;;;26.50;57.20;;;;;;5126661;27;43025;-74
2023/07/05 12:06:20;;;;;;;;;;;26.50;56.90;;;;;;5107985;27;44447;-75
2023/07/05 12:08:48;;;;;;;;;;;26.60;57.00;;;;;;5132558;27;42962;-75
2023/07/05 12:11:25;;;;;;;;;;;26.60;57.00;;;;;;5143677;27;43190;-79
2023/07/05 12:13:51;;;;;;;;;;;26.60;57.50;;;;;;5145562;27;43269;-77
2023/07/05 12:16:18;;;;;;;;;;;26.60;57.50;;;;;;5141075;27;42970;-76
2023/07/05 12:18:43;;;;;;;;;;;26.60;58.00;;;;;;5145017;27;43204;-76
2023/07/05 12:21:11;;;;;;;;;;;26.60;57.50;;;;;;5124838;27;42983;-76
2023/07/05 12:23:37;;;;;;;;;;;26.60;57.60;;;;;;5116262;27;42932;-77
2023/07/05 12:26:04;;;;;;;;;;;26.60;57.60;;;;;;5129989;27;42812;-81
2023/07/05 12:28:31;;;;;;;;;;;26.60;57.10;;;;;;5115618;27;42916;-76
2023/07/05 12:30:58;;;;;;;;;;;26.60;57.20;;;;;;5139118;27;42856;-83
2023/07/05 12:33:25;;;;;;;;;;;26.60;57.70;;;;;;5143639;27;42922;-82
2023/07/05 12:36:04;;;;;;;;;;;26.60;57.70;;;;;;5133417;27;43938;-76
2023/07/05 12:38:29;;;;;;;;;;;26.60;57.70;;;;;;5125957;27;43024;-81
2023/07/05 12:40:55;;;;;;;;;;;26.60;57.20;;;;;;5145069;27;42998;-74
2023/07/05 12:43:28;;;;;;;;;;;26.60;57.20;;;;;;5140925;27;42989;-80
2023/07/05 12:46:04;;;;;;;;;;;26.60;57.60;;;;;;5139583;27;43588;-80
2023/07/05 12:48:29;;;;;;;;;;;26.60;57.20;;;;;;5134871;27;43018;-79
2023/07/05 12:51:06;;;;;;;;;;;26.60;57.10;;;;;;5124870;27;43417;-79
2023/07/05 12:53:32;;;;;;;;;;;26.60;57.60;;;;;;5132936;27;43653;-83
2023/07/05 12:56:17;;;;;;;;;;;26.60;57.60;;;;;;5139132;27;42958;-83
2023/07/05 12:58:49;;;;;;;;;;;26.60;57.60;;;;;;5131467;27;43276;-75
2023/07/05 13:01:18;;;;;;;;;;;26.60;57.70;;;;;;5131384;27;43534;-80
2023/07/05 13:03:48;;;;;;;;;;;26.60;57.20;;;;;;5130847;27;43224;-84
2023/07/05 13:06:14;;;;;;;;;;;26.60;57.70;;;;;;5144279;27;42946;-83
2023/07/05 13:08:46;;;;;;;;;;;26.60;57.20;;;;;;5147857;27;43262;-83
2023/07/05 13:11:20;;;;;;;;;;;26.60;57.70;;;;;;5124418;27;43910;-76
2023/07/05 13:13:55;;;;;;;;;;;26.60;57.70;;;;;;5123204;27;43291;-75
2023/07/05 13:16:23;;;;;;;;;;;26.60;57.20;;;;;;5111073;27;43296;-77
2023/07/05 13:19:03;;;;;;;;;;;26.60;57.60;;;;;;5130390;27;42866;-83
2023/07/05 13:21:36;;;;;;;;;;;26.60;57.90;;;;;;5122407;27;44136;-82
2023/07/05 13:24:02;;;;;;;;;;;26.60;57.70;;;;;;5096512;27;44564;-81
2023/07/05 13:26:32;;;;;;;;;;;26.70;57.60;;;;;;5135583;27;43402;-75
2023/07/05 13:28:59;;;;;;;;;;;26.60;57.00;;;;;;5146854;27;42994;-82
2023/07/05 13:31:25;;;;;;;;;;;26.60;56.90;;;;;;5147421;27;43238;-75
2023/07/05 13:33:57;;;;;;;;;;;26.70;57.30;;;;;;5142733;27;43466;-75
2023/07/05 13:36:23;;;;;;;;;;;26.70;57.10;;;;;;5146828;27;43717;-75
2023/07/05 13:38:48;;;;;;;;;;;26.70;57.20;;;;;;5147358;27;42701;-75
2023/07/05 13:41:21;;;;;;;;;;;26.70;57.30;;;;;;5147845;27;43326;-75
2023/07/05 13:43:47;;;;;;;;;;;26.70;57.00;;;;;;5132352;27;42897;-76
2023/07/05 13:46:12;;;;;;;;;;;26.60;56.20;;;;;;5141005;27;42951;-76
2023/07/05 13:48:38;;;;;;;;;;;26.60;56.10;;;;;;5134321;27;42999;-79
2023/07/05 13:51:04;;;;;;;;;;;26.70;56.60;;;;;;5141106;27;42958;-76
2023/07/05 13:53:30;;;;;;;;;;;26.70;56.60;;;;;;5146332;27;42991;-81
2023/07/05 13:55:55;;;;;;;;;;;26.70;56.60;;;;;;5147496;27;42995;-79
2023/07/05 13:58:21;;;;;;;;;;;26.70;56.60;;;;;;5134110;27;42793;-79
2023/07/05 14:00:46;;;;;;;;;;;26.70;56.20;;;;;;5148036;27;43699;-76
2023/07/05 14:03:13;;;;;;;;;;;26.70;55.90;;;;;;5148368;27;42964;-74
2023/07/05 14:05:39;;;;;;;;;;;26.70;55.80;;;;;;5147220;27;42985;-75
2023/07/05 14:08:06;;;;;;;;;;;26.70;55.20;;;;;;5128211;27;42900;-76
2023/07/05 14:10:32;;;;;;;;;;;26.70;55.50;;;;;;5141552;27;43000;-79
2023/07/05 14:12:57;;;;;;;;;;;26.70;55.40;;;;;;5143470;27;43130;-79
2023/07/05 14:15:29;;;;;;;;;;;26.70;54.90;;;;;;5147625;27;43013;-76
2023/07/05 14:17:54;;;;;;;;;;;26.70;55.00;;;;;;5143616;27;42922;-77
2023/07/05 14:20:20;;;;;;;;;;;26.70;55.60;;;;;;5145996;27;43294;-75
2023/07/05 14:22:46;;;;;;;;;;;26.70;55.20;;;;;;5139195;27;43107;-75